Current Conditions
Mostly Clear
Conditions



Pressure
1010.92 (hPa) - 29.85 (inHG)
Visibility

10.0 (km) - 6.2 (miles)
Temperature
26  °C
Temperature
23  °C
Dewpoint
84  %
 Humidity
Wind Speed
13  km/h
7  kts
8  mph
3.6  m/s
Wind Direction
N
45°
E
90°
135°
S
180°
225°
W
270°
315°
 30°

North North
East
Airport Data
LTBA
İstanbul Atatürk Airport
Metar :LTBA 010320Z 03007KT CAVOK 26/23 Q1011 NOSIG RMK RWY23 06008KT 020V090
Sun 1st August 00:20 am
Raw Metar Info
Raw METAR is the most common format in the world for the transmission of observational weather data. It is highly standardized through the International Civil Aviation Organization (ICAO), which allows it to be understood throughout most of the world.
API Info
Data Provided by
https://www.checkwx.com/weather/LTBA

Aviation Weather providing METAR, TAF, AIRMET, SIGMET and OUTLOOK Weather Reports
© Info
CSS/SVG/PHP scripts were developed by weather34.com for use in the weather34 template © 2015-2021

Guide Info provided by Metar-Wikipedia